createdAt,value
2022-11-15T00:00:51.432Z,7.70
2022-11-15T00:03:19.613Z,7.70
2022-11-15T00:05:46.800Z,7.70
2022-11-15T00:08:14.156Z,7.70
2022-11-15T00:10:40.974Z,7.70
2022-11-15T00:13:13.227Z,7.70
2022-11-15T00:15:41.756Z,7.60
2022-11-15T00:18:13.713Z,7.60
2022-11-15T00:20:40.654Z,7.60
2022-11-15T00:23:08.631Z,7.60
2022-11-15T00:25:35.145Z,7.50
2022-11-15T00:28:02.083Z,7.50
2022-11-15T00:30:29.315Z,7.50
2022-11-15T00:32:56.233Z,7.50
2022-11-15T00:35:23.263Z,7.50
2022-11-15T00:37:49.922Z,7.50
2022-11-15T00:40:16.573Z,7.50
2022-11-15T00:42:43.250Z,7.50
2022-11-15T00:45:10.465Z,7.50
2022-11-15T00:47:36.997Z,7.50
2022-11-15T00:50:04.766Z,7.50
2022-11-15T00:52:31.304Z,7.50
2022-11-15T00:54:57.823Z,7.50
2022-11-15T00:57:24.408Z,7.50
2022-11-15T00:59:51.113Z,7.60
2022-11-15T01:02:17.669Z,7.60
2022-11-15T01:04:44.302Z,7.60
2022-11-15T01:07:10.918Z,7.60
2022-11-15T01:09:37.647Z,7.60
2022-11-15T01:12:04.922Z,7.60
2022-11-15T01:14:31.506Z,7.60
2022-11-15T01:16:58.049Z,7.60
2022-11-15T01:19:24.595Z,7.60
2022-11-15T01:21:51.549Z,7.70
2022-11-15T01:24:18.338Z,7.60
2022-11-15T01:26:45.029Z,7.60
2022-11-15T01:29:11.609Z,7.60
2022-11-15T01:31:38.962Z,7.60
2022-11-15T01:34:05.549Z,7.60
2022-11-15T01:36:32.161Z,7.50
2022-11-15T01:38:59.503Z,7.50
2022-11-15T01:41:28.801Z,7.50
2022-11-15T01:44:31.942Z,7.50
2022-11-15T01:47:00.571Z,7.40
2022-11-15T01:49:30.650Z,7.40
2022-11-15T01:51:58.281Z,7.40
2022-11-15T01:54:26.271Z,7.40
2022-11-15T01:56:57.677Z,7.40
2022-11-15T01:59:24.561Z,7.40
2022-11-15T02:01:51.422Z,7.40
2022-11-15T02:04:31.085Z,7.30
2022-11-15T02:06:57.955Z,7.30
2022-11-15T02:09:24.618Z,7.30
2022-11-15T02:11:52.715Z,7.30
2022-11-15T02:14:21.044Z,7.30
2022-11-15T02:17:19.107Z,7.30
2022-11-15T02:20:09.183Z,7.20
2022-11-15T02:22:59.383Z,7.20
2022-11-15T02:25:58.713Z,7.20
2022-11-15T02:28:38.515Z,7.30
2022-11-15T02:31:20.437Z,7.20
2022-11-15T02:34:02.943Z,7.20
2022-11-15T02:37:20.235Z,7.10
2022-11-15T02:39:46.706Z,7.10
2022-11-15T02:42:45.699Z,7.10
2022-11-15T02:45:20.018Z,7.00
2022-11-15T02:47:50.559Z,7.10
2022-11-15T02:50:20.335Z,7.00
2022-11-15T02:52:49.295Z,7.10
2022-11-15T02:55:44.027Z,7.00
2022-11-15T02:58:31.366Z,7.00
2022-11-15T03:01:25.888Z,7.00
2022-11-15T03:04:14.124Z,7.00
2022-11-15T03:07:01.266Z,6.90
2022-11-15T03:10:01.714Z,6.90
2022-11-15T03:12:34.748Z,6.80
2022-11-15T03:15:21.595Z,6.80
2022-11-15T03:18:02.961Z,6.80
2022-11-15T03:20:31.152Z,6.80
2022-11-15T03:23:05.538Z,6.70
2022-11-15T03:25:34.326Z,6.70
2022-11-15T03:28:03.993Z,6.70
2022-11-15T03:30:33.757Z,6.70
2022-11-15T03:33:03.472Z,6.70
2022-11-15T03:35:34.474Z,6.70
2022-11-15T03:38:03.800Z,6.70
2022-11-15T03:40:46.601Z,6.70
2022-11-15T03:43:19.861Z,6.70
2022-11-15T03:45:56.776Z,6.70
2022-11-15T03:48:28.248Z,6.70
2022-11-15T03:50:55.449Z,6.70
2022-11-15T03:53:21.999Z,6.70
2022-11-15T03:55:48.602Z,6.60
2022-11-15T03:58:15.128Z,6.70
2022-11-15T04:00:41.772Z,6.60
2022-11-15T04:03:08.894Z,6.70
2022-11-15T04:05:35.491Z,6.70
2022-11-15T04:08:02.063Z,6.70
2022-11-15T04:10:28.577Z,6.70
2022-11-15T04:12:55.158Z,6.70
2022-11-15T04:15:24.003Z,6.70
2022-11-15T04:17:53.486Z,6.70
2022-11-15T04:20:47.447Z,6.70
2022-11-15T04:23:35.330Z,6.70
2022-11-15T04:26:15.328Z,6.70
2022-11-15T04:29:00.714Z,6.70
2022-11-15T04:31:27.874Z,6.70
2022-11-15T04:33:55.000Z,6.70
2022-11-15T04:36:41.091Z,6.80
2022-11-15T04:39:07.726Z,6.80
2022-11-15T04:41:34.320Z,6.90
2022-11-15T04:44:01.177Z,7.00
2022-11-15T04:46:28.176Z,7.00
2022-11-15T04:48:58.701Z,7.00
2022-11-15T04:51:26.331Z,7.00
2022-11-15T04:53:52.927Z,7.00
2022-11-15T04:56:20.279Z,7.10
2022-11-15T04:58:49.929Z,7.20
2022-11-15T05:01:16.724Z,7.20
2022-11-15T05:04:03.264Z,7.20
2022-11-15T05:06:30.464Z,7.20
2022-11-15T05:08:57.291Z,7.30
2022-11-15T05:11:24.196Z,7.30
2022-11-15T05:13:51.263Z,7.30
2022-11-15T05:16:17.862Z,7.40
2022-11-15T05:18:44.391Z,7.40
2022-11-15T05:21:14.012Z,7.40
2022-11-15T05:23:42.117Z,7.40
2022-11-15T05:26:09.769Z,7.40
2022-11-15T05:28:37.334Z,7.50
2022-11-15T05:31:09.391Z,7.50
2022-11-15T05:33:38.331Z,7.50
2022-11-15T05:36:33.126Z,7.50
2022-11-15T05:38:59.704Z,7.50
2022-11-15T05:41:45.470Z,7.50
2022-11-15T05:44:16.450Z,7.50
2022-11-15T05:46:44.024Z,7.60
2022-11-15T05:49:13.551Z,7.60
2022-11-15T05:51:42.223Z,7.60
2022-11-15T05:54:08.996Z,7.60
2022-11-15T05:56:35.607Z,7.60
2022-11-15T05:59:02.746Z,7.70
2022-11-15T06:01:29.403Z,7.60
2022-11-15T06:03:55.931Z,7.70
2022-11-15T06:06:22.480Z,7.70
2022-11-15T06:08:49.089Z,7.70
2022-11-15T06:11:15.888Z,7.70
2022-11-15T06:13:42.522Z,7.80
2022-11-15T06:16:09.130Z,7.80
2022-11-15T06:18:36.746Z,7.70
2022-11-15T06:21:03.423Z,7.80
2022-11-15T06:23:33.674Z,7.80
2022-11-15T06:26:01.423Z,7.80
2022-11-15T06:28:32.502Z,7.80
2022-11-15T06:31:04.694Z,7.80
2022-11-15T06:33:31.418Z,7.80
2022-11-15T06:36:05.174Z,7.90
2022-11-15T06:38:31.808Z,7.90
2022-11-15T06:41:10.209Z,7.90
2022-11-15T06:43:37.847Z,8.00
2022-11-15T06:46:05.868Z,8.00
2022-11-15T06:48:34.290Z,8.00
2022-11-15T06:51:02.827Z,8.00
2022-11-15T06:53:30.862Z,8.00
2022-11-15T06:56:06.807Z,8.00
2022-11-15T06:58:33.823Z,8.00
2022-11-15T07:01:02.852Z,8.00
2022-11-15T07:03:29.939Z,8.00
2022-11-15T07:06:02.780Z,8.00
2022-11-15T07:08:33.046Z,8.10
2022-11-15T07:11:04.222Z,8.00
2022-11-15T07:13:35.741Z,8.00
2022-11-15T07:16:04.862Z,8.10
2022-11-15T07:18:31.543Z,8.10
2022-11-15T07:21:02.789Z,8.10
2022-11-15T07:23:30.010Z,8.10
2022-11-15T07:26:01.420Z,8.10
2022-11-15T07:28:28.840Z,8.10
2022-11-15T07:30:55.958Z,8.10
2022-11-15T07:33:22.639Z,8.10
2022-11-15T07:35:49.480Z,8.20
2022-11-15T07:38:16.767Z,8.10
2022-11-15T07:40:43.394Z,8.20
2022-11-15T07:43:10.093Z,8.20
2022-11-15T07:45:45.134Z,8.20
2022-11-15T07:48:12.103Z,8.30
2022-11-15T07:50:42.564Z,8.30
2022-11-15T07:53:11.180Z,8.30
2022-11-15T07:55:38.435Z,8.30
2022-11-15T07:58:08.705Z,8.30
2022-11-15T08:00:39.590Z,8.30
2022-11-15T08:03:14.382Z,8.40
2022-11-15T08:05:41.968Z,8.40
2022-11-15T08:08:10.640Z,8.40
2022-11-15T08:10:40.796Z,8.40
2022-11-15T08:13:10.083Z,8.40
2022-11-15T08:15:37.807Z,8.40
2022-11-15T08:18:17.456Z,8.40
2022-11-15T08:20:44.231Z,8.40
2022-11-15T08:23:13.017Z,8.40
2022-11-15T08:25:40.165Z,8.50
2022-11-15T08:28:08.765Z,8.50
2022-11-15T08:30:37.821Z,8.50
2022-11-15T08:33:04.654Z,8.50
2022-11-15T08:35:31.755Z,8.50
2022-11-15T08:37:58.327Z,8.60
2022-11-15T08:40:25.092Z,8.60
2022-11-15T08:42:51.841Z,8.70
2022-11-15T08:45:18.501Z,8.70
2022-11-15T08:47:49.720Z,8.70
2022-11-15T08:50:19.696Z,8.70
2022-11-15T08:52:46.320Z,8.80
2022-11-15T08:55:12.914Z,8.80
2022-11-15T08:57:39.511Z,8.80
2022-11-15T09:00:07.039Z,8.90
2022-11-15T09:02:33.605Z,8.90
2022-11-15T09:05:00.186Z,8.90
2022-11-15T09:07:26.769Z,9.00
2022-11-15T09:09:53.336Z,9.00
2022-11-15T09:12:19.951Z,9.00
2022-11-15T09:14:46.500Z,9.00
2022-11-15T09:17:13.085Z,9.00
2022-11-15T09:19:39.648Z,9.10
2022-11-15T09:22:09.670Z,9.00
2022-11-15T09:24:36.565Z,9.10
2022-11-15T09:27:03.807Z,9.10
2022-11-15T09:29:30.370Z,9.10
2022-11-15T09:31:56.916Z,9.10
2022-11-15T09:34:23.487Z,9.20
2022-11-15T09:36:50.026Z,9.20
2022-11-15T09:39:16.636Z,9.20
2022-11-15T09:42:19.576Z,9.30
2022-11-15T09:45:24.985Z,9.30
2022-11-15T09:48:17.713Z,9.30
2022-11-15T09:50:49.319Z,9.40
2022-11-15T09:53:47.919Z,9.40
2022-11-15T09:56:23.107Z,9.40
2022-11-15T09:59:17.674Z,9.40
2022-11-15T10:02:06.113Z,9.50
2022-11-15T10:04:33.126Z,9.60
2022-11-15T10:07:24.244Z,9.60
2022-11-15T10:10:04.266Z,9.70
2022-11-15T10:12:34.807Z,9.80
2022-11-15T10:15:11.802Z,9.80
2022-11-15T10:18:05.188Z,9.80
2022-11-15T10:20:41.011Z,9.80
2022-11-15T10:23:14.182Z,9.90
2022-11-15T10:25:40.807Z,10.00
2022-11-15T10:28:28.785Z,10.00
2022-11-15T10:31:04.526Z,10.10
2022-11-15T10:33:34.642Z,10.00
2022-11-15T10:36:10.239Z,10.00
2022-11-15T10:38:54.529Z,10.10
2022-11-15T10:41:34.099Z,10.10
2022-11-15T10:44:21.511Z,10.20
2022-11-15T10:46:55.257Z,10.20
2022-11-15T10:49:22.843Z,10.20
2022-11-15T10:51:58.908Z,10.30
2022-11-15T10:54:39.630Z,10.30
2022-11-15T10:57:13.387Z,10.30
2022-11-15T10:59:46.642Z,10.40
2022-11-15T11:02:31.422Z,10.30
2022-11-15T11:04:58.878Z,10.40
2022-11-15T11:07:31.037Z,10.40
2022-11-15T11:10:50.909Z,10.50
2022-11-15T11:13:15.366Z,10.50
2022-11-15T11:15:47.759Z,10.50
2022-11-15T11:18:25.335Z,10.60
2022-11-15T11:21:15.231Z,10.60
2022-11-15T11:23:57.728Z,10.60
2022-11-15T11:26:41.568Z,10.60
2022-11-15T11:29:39.626Z,10.60
2022-11-15T11:32:09.136Z,10.60
2022-11-15T11:34:58.251Z,10.70
2022-11-15T11:37:46.550Z,10.70
2022-11-15T11:40:38.017Z,10.70
2022-11-15T11:43:21.264Z,10.80
2022-11-15T11:46:21.273Z,10.80
2022-11-15T11:48:55.052Z,10.80
2022-11-15T11:51:29.550Z,10.90
2022-11-15T11:54:02.203Z,10.90
2022-11-15T11:56:32.892Z,11.00
2022-11-15T11:59:22.427Z,11.00
2022-11-15T12:01:49.197Z,11.10
2022-11-15T12:04:19.236Z,11.20
2022-11-15T12:06:58.674Z,11.20
2022-11-15T12:09:37.054Z,11.30
2022-11-15T12:12:22.027Z,11.20
2022-11-15T12:15:11.747Z,11.30
2022-11-15T12:17:40.778Z,11.30
2022-11-15T12:20:30.332Z,11.30
2022-11-15T12:22:59.091Z,11.30
2022-11-15T12:25:38.507Z,11.30
2022-11-15T12:28:20.619Z,11.40
2022-11-15T12:30:54.521Z,11.40
2022-11-15T12:33:42.099Z,11.40
2022-11-15T12:36:22.773Z,11.50
2022-11-15T12:39:03.677Z,11.50
2022-11-15T12:41:35.200Z,11.50
2022-11-15T12:44:02.556Z,11.60
2022-11-15T12:46:31.955Z,11.70
2022-11-15T12:49:08.691Z,11.80
2022-11-15T12:51:44.210Z,11.80
2022-11-15T12:54:22.839Z,11.90
2022-11-15T12:57:04.914Z,11.90
2022-11-15T12:59:52.937Z,12.00
2022-11-15T13:02:49.387Z,12.00
2022-11-15T13:05:16.542Z,12.10
2022-11-15T13:07:43.110Z,12.20
2022-11-15T13:10:28.470Z,12.20
2022-11-15T13:13:03.858Z,12.30
2022-11-15T13:15:53.855Z,12.40
2022-11-15T13:18:31.575Z,12.50
2022-11-15T13:21:02.681Z,12.50
2022-11-15T13:23:29.833Z,12.50
2022-11-15T13:26:10.103Z,12.50
2022-11-15T13:28:46.506Z,12.60
2022-11-15T13:31:35.379Z,12.70
2022-11-15T13:34:44.180Z,12.70
2022-11-15T13:37:03.332Z,12.80
2022-11-15T13:39:35.009Z,12.80
2022-11-15T13:42:01.860Z,12.80
2022-11-15T13:44:34.324Z,12.80
2022-11-15T13:47:26.044Z,12.90
2022-11-15T13:49:52.765Z,12.90
2022-11-15T13:52:19.841Z,12.90
2022-11-15T13:55:22.729Z,13.00
2022-11-15T13:57:56.878Z,13.00
2022-11-15T14:00:37.386Z,13.10
2022-11-15T14:03:19.745Z,13.10
2022-11-15T14:06:07.963Z,13.20
2022-11-15T14:08:37.103Z,13.30
2022-11-15T14:11:11.729Z,13.40
2022-11-15T14:13:38.349Z,13.40
2022-11-15T14:16:21.524Z,13.60
2022-11-15T14:18:51.603Z,13.60
2022-11-15T14:21:21.040Z,13.50
2022-11-15T14:23:48.053Z,13.50
2022-11-15T14:26:29.851Z,13.50
2022-11-15T14:28:56.502Z,13.50
2022-11-15T14:31:23.188Z,13.40
2022-11-15T14:33:49.943Z,13.40
2022-11-15T14:36:19.474Z,13.40
2022-11-15T14:38:46.439Z,13.40
2022-11-15T14:41:21.892Z,13.40
2022-11-15T14:43:48.968Z,13.50
2022-11-15T14:46:15.638Z,13.50
2022-11-15T14:48:44.281Z,13.40
2022-11-15T14:51:17.127Z,13.40
2022-11-15T14:53:45.284Z,13.40
2022-11-15T14:56:13.490Z,13.40
2022-11-15T14:58:40.031Z,13.40
2022-11-15T15:01:15.333Z,13.30
2022-11-15T15:03:41.935Z,13.20
2022-11-15T15:06:15.040Z,13.20
2022-11-15T15:08:44.270Z,13.10
2022-11-15T15:11:22.222Z,13.10
2022-11-15T15:13:48.930Z,13.00
2022-11-15T15:16:15.542Z,12.90
2022-11-15T15:18:42.266Z,12.90
2022-11-15T15:21:22.681Z,12.90
2022-11-15T15:23:49.507Z,12.80
2022-11-15T15:26:16.311Z,12.80
2022-11-15T15:28:43.410Z,12.80
2022-11-15T15:31:11.234Z,12.70
2022-11-15T15:33:38.338Z,12.70
2022-11-15T15:36:05.320Z,12.70
2022-11-15T15:38:32.159Z,12.70
2022-11-15T15:41:00.531Z,12.70
2022-11-15T15:43:27.125Z,12.60
2022-11-15T15:45:54.880Z,12.60
2022-11-15T15:48:21.466Z,12.60
2022-11-15T15:50:49.999Z,12.60
2022-11-15T15:53:16.606Z,12.60
2022-11-15T15:55:43.316Z,12.50
2022-11-15T15:58:09.979Z,12.50
2022-11-15T16:00:37.804Z,12.50
2022-11-15T16:03:04.776Z,12.40
2022-11-15T16:05:31.467Z,12.40
2022-11-15T16:07:58.237Z,12.40
2022-11-15T16:10:27.431Z,12.40
2022-11-15T16:12:55.281Z,12.40
2022-11-15T16:15:23.678Z,12.30
2022-11-15T16:17:55.567Z,12.20
2022-11-15T16:20:40.634Z,12.20
2022-11-15T16:23:10.121Z,12.10
2022-11-15T16:25:47.136Z,12.00
2022-11-15T16:28:31.453Z,12.00
2022-11-15T16:31:10.203Z,12.00
2022-11-15T16:33:37.521Z,12.00
2022-11-15T16:36:05.949Z,12.00
2022-11-15T16:38:33.103Z,12.00
2022-11-15T16:40:59.927Z,11.90
2022-11-15T16:43:26.460Z,11.90
2022-11-15T16:45:53.030Z,12.00
2022-11-15T16:48:27.790Z,11.90
2022-11-15T16:50:58.899Z,11.90
2022-11-15T16:53:27.153Z,11.90
2022-11-15T16:55:55.367Z,11.80
2022-11-15T16:58:22.327Z,11.80
2022-11-15T17:00:56.323Z,11.80
2022-11-15T17:03:24.424Z,11.80
2022-11-15T17:05:51.822Z,11.70
2022-11-15T17:08:20.964Z,11.70
2022-11-15T17:10:47.878Z,11.70
2022-11-15T17:13:14.850Z,11.70
2022-11-15T17:15:41.430Z,11.70
2022-11-15T17:18:12.082Z,11.70
2022-11-15T17:20:39.999Z,11.70
2022-11-15T17:23:12.133Z,11.60
2022-11-15T17:25:38.923Z,11.60
2022-11-15T17:28:05.553Z,11.60
2022-11-15T17:30:32.125Z,11.60
2022-11-15T17:32:58.705Z,11.60
2022-11-15T17:35:25.221Z,11.60
2022-11-15T17:37:52.684Z,11.60
2022-11-15T17:40:19.196Z,11.50
2022-11-15T17:42:45.780Z,11.50
2022-11-15T17:45:12.518Z,11.50
2022-11-15T17:47:39.403Z,11.50
2022-11-15T17:50:06.165Z,11.50
2022-11-15T17:52:32.739Z,11.50
2022-11-15T17:54:59.306Z,11.50
2022-11-15T17:57:25.881Z,11.40
2022-11-15T17:59:52.503Z,11.40
2022-11-15T18:02:19.403Z,11.40
2022-11-15T18:04:45.968Z,11.40
2022-11-15T18:07:13.864Z,11.40
2022-11-15T18:09:43.588Z,11.40
2022-11-15T18:12:11.728Z,11.40
2022-11-15T18:14:38.612Z,11.40
2022-11-15T18:17:05.200Z,11.40
2022-11-15T18:19:31.928Z,11.40
2022-11-15T18:22:04.224Z,11.50
2022-11-15T18:24:36.587Z,11.50
2022-11-15T18:27:05.049Z,11.50
2022-11-15T18:29:33.275Z,11.50
2022-11-15T18:31:59.920Z,11.50
2022-11-15T18:34:32.042Z,11.50
2022-11-15T18:36:59.647Z,11.50
2022-11-15T18:39:26.313Z,11.50
2022-11-15T18:41:52.946Z,11.50
2022-11-15T18:44:19.885Z,11.60
2022-11-15T18:46:46.665Z,11.50
2022-11-15T18:49:14.967Z,11.50
2022-11-15T18:51:42.106Z,11.50
2022-11-15T18:54:13.933Z,11.40
2022-11-15T18:56:41.491Z,11.40
2022-11-15T18:59:08.650Z,11.40
2022-11-15T19:01:40.764Z,11.50
2022-11-15T19:04:10.191Z,11.50
2022-11-15T19:06:39.234Z,11.40
2022-11-15T19:09:06.980Z,11.50
2022-11-15T19:11:35.813Z,11.40
2022-11-15T19:14:04.643Z,11.40
2022-11-15T19:16:33.338Z,11.40
2022-11-15T19:19:02.277Z,11.40
2022-11-15T19:21:31.113Z,11.40
2022-11-15T19:23:58.908Z,11.40
2022-11-15T19:26:26.782Z,11.40
2022-11-15T19:28:56.817Z,11.30
2022-11-15T19:31:24.793Z,11.50
2022-11-15T19:33:52.901Z,11.40
2022-11-15T19:36:26.940Z,11.40
2022-11-15T19:38:54.746Z,11.40
2022-11-15T19:41:23.975Z,11.40
2022-11-15T19:43:51.147Z,11.40
2022-11-15T19:46:23.449Z,11.50
2022-11-15T19:48:51.487Z,11.50
2022-11-15T19:51:22.661Z,11.50
2022-11-15T19:53:52.390Z,11.50
2022-11-15T19:56:20.080Z,11.50
2022-11-15T19:58:50.488Z,11.50
2022-11-15T20:01:19.841Z,11.50
2022-11-15T20:03:48.082Z,11.50
2022-11-15T20:06:17.885Z,11.50
2022-11-15T20:08:45.568Z,11.50
2022-11-15T20:11:13.214Z,11.50
2022-11-15T20:13:40.284Z,11.50
2022-11-15T20:16:07.958Z,11.50
2022-11-15T20:18:35.237Z,11.50
2022-11-15T20:21:04.468Z,11.50
2022-11-15T20:23:31.382Z,11.50
2022-11-15T20:25:58.226Z,11.50
2022-11-15T20:28:27.333Z,11.50
2022-11-15T20:30:56.689Z,11.50
2022-11-15T20:33:23.848Z,11.50
2022-11-15T20:35:50.708Z,11.50
2022-11-15T20:38:17.696Z,11.50
2022-11-15T20:40:48.876Z,11.50
2022-11-15T20:43:17.617Z,11.50
2022-11-15T20:45:48.936Z,11.50
2022-11-15T20:48:15.939Z,11.50
2022-11-15T20:50:43.974Z,11.50
2022-11-15T20:53:12.466Z,11.50
2022-11-15T20:55:52.188Z,11.50
2022-11-15T20:58:18.912Z,11.60
2022-11-15T21:00:46.242Z,11.50
2022-11-15T21:03:14.115Z,11.60
2022-11-15T21:05:42.750Z,11.60
2022-11-15T21:08:11.515Z,11.60
2022-11-15T21:10:57.511Z,11.60
2022-11-15T21:13:24.039Z,11.60
2022-11-15T21:15:50.645Z,11.60
2022-11-15T21:18:17.250Z,11.60
2022-11-15T21:20:43.786Z,11.60
2022-11-15T21:23:11.395Z,11.70
2022-11-15T21:25:37.925Z,11.60
2022-11-15T21:28:05.438Z,11.50
2022-11-15T21:30:32.009Z,11.60
2022-11-15T21:32:58.626Z,11.60
2022-11-15T21:35:25.303Z,11.50
2022-11-15T21:37:56.400Z,11.60
2022-11-15T21:40:23.879Z,11.60
2022-11-15T21:42:50.735Z,11.60
2022-11-15T21:45:17.333Z,11.60
2022-11-15T21:47:46.354Z,11.50
2022-11-15T21:50:13.659Z,11.50
2022-11-15T21:52:40.576Z,11.50
2022-11-15T21:55:08.051Z,11.50
2022-11-15T21:57:34.646Z,11.40
2022-11-15T22:00:20.232Z,11.40
2022-11-15T22:02:46.874Z,11.40
2022-11-15T22:05:13.686Z,11.40
2022-11-15T22:07:40.322Z,11.50
2022-11-15T22:10:07.156Z,11.40
2022-11-15T22:12:33.818Z,11.40
2022-11-15T22:15:00.386Z,11.40
2022-11-15T22:17:47.000Z,11.40
2022-11-15T22:20:42.534Z,11.40
2022-11-15T22:23:02.498Z,11.40
2022-11-15T22:25:29.971Z,11.40
2022-11-15T22:27:56.927Z,11.40
2022-11-15T22:30:24.270Z,11.30
2022-11-15T22:32:50.931Z,11.30
2022-11-15T22:35:17.701Z,11.30
2022-11-15T22:37:44.438Z,11.30
2022-11-15T22:40:11.068Z,11.30
2022-11-15T22:42:37.673Z,11.20
2022-11-15T22:45:04.709Z,11.30
2022-11-15T22:47:31.375Z,11.20
2022-11-15T22:49:58.028Z,11.20
2022-11-15T22:52:24.661Z,11.20
2022-11-15T22:54:51.406Z,11.20
2022-11-15T22:57:18.203Z,11.10
2022-11-15T22:59:45.020Z,11.10
2022-11-15T23:02:11.640Z,11.10
2022-11-15T23:04:38.261Z,11.00
2022-11-15T23:07:05.100Z,11.00
2022-11-15T23:09:31.765Z,11.00
2022-11-15T23:12:16.868Z,10.90
2022-11-15T23:14:43.689Z,10.90
2022-11-15T23:17:10.287Z,10.90
2022-11-15T23:19:36.978Z,10.90
2022-11-15T23:22:22.343Z,10.80
2022-11-15T23:24:49.060Z,10.80
2022-11-15T23:27:19.700Z,10.90
2022-11-15T23:30:05.260Z,10.80
2022-11-15T23:32:50.632Z,10.80
2022-11-15T23:35:17.490Z,10.80
2022-11-15T23:37:44.397Z,10.70
2022-11-15T23:40:11.855Z,10.60
2022-11-15T23:42:38.446Z,10.60
2022-11-15T23:45:06.091Z,10.60
2022-11-15T23:47:32.705Z,10.60
2022-11-15T23:49:59.334Z,10.50
2022-11-15T23:52:26.013Z,10.50
2022-11-15T23:54:52.657Z,10.40
2022-11-15T23:57:19.299Z,10.50
2022-11-15T23:59:46.106Z,10.40
